Time;durP1;ratioP1;P1;durP2;ratioP2;P2;SDS_P1;SDS_P2;PMS_P1;PMS_P2;Temp;Humidity;BMP_temperature;BMP_pressure;BME280_temperature;BME280_humidity;BME280_pressure;Samples;Min_cycle;Max_cycle;Signal;HPM_P1;HPM_P2
2022/08/16 00:02:02;;;;;;;28.13;24.40;;;21.90;99.90;;;;;;5092621;28;20036;-70
2022/08/16 00:04:28;;;;;;;31.65;24.42;;;22.00;99.90;;;;;;5093514;28;20045;-68
2022/08/16 00:06:55;;;;;;;31.70;24.05;;;21.70;99.90;;;;;;5093602;28;20020;-70
2022/08/16 00:09:21;;;;;;;29.13;24.20;;;21.60;99.90;;;;;;5093922;28;20365;-70
2022/08/16 00:11:47;;;;;;;31.50;23.88;;;21.60;99.90;;;;;;5093246;28;20047;-70
2022/08/16 00:14:22;;;;;;;29.85;24.05;;;21.80;99.90;;;;;;5093571;28;20032;-71
2022/08/16 00:16:49;;;;;;;27.95;23.42;;;21.70;99.90;;;;;;5093519;28;20160;-69
2022/08/16 00:19:20;;;;;;;28.35;22.80;;;21.60;99.90;;;;;;5093418;28;20488;-68
2022/08/16 00:21:45;;;;;;;25.37;21.00;;;21.40;99.90;;;;;;5093148;28;20060;-71
2022/08/16 00:24:13;;;;;;;24.33;20.58;;;21.30;99.90;;;;;;5093230;28;20468;-74
2022/08/16 00:26:40;;;;;;;27.33;21.98;;;21.10;99.90;;;;;;5093024;28;20441;-73
2022/08/16 00:29:06;;;;;;;29.50;21.52;;;21.30;99.90;;;;;;5093033;28;20114;-74
2022/08/16 00:31:33;;;;;;;30.63;20.55;;;21.50;99.90;;;;;;5092106;28;20123;-73
2022/08/16 00:33:59;;;;;;;24.15;20.60;;;21.20;99.90;;;;;;5092720;28;20024;-73
2022/08/16 00:36:26;;;;;;;26.65;20.60;;;21.30;99.90;;;;;;5091576;28;20032;-73
2022/08/16 00:38:52;;;;;;;28.75;19.80;;;21.40;99.90;;;;;;5091671;28;20067;-73
2022/08/16 00:41:18;;;;;;;23.63;19.65;;;21.60;99.90;;;;;;5092077;28;20062;-74
2022/08/16 00:43:44;;;;;;;28.85;19.65;;;21.60;99.90;;;;;;5092962;28;20025;-73
2022/08/16 00:46:29;;;;;;;25.60;18.58;;;21.60;99.90;;;;;;5092896;28;20544;-73
2022/08/16 00:48:55;;;;;;;27.80;19.08;;;21.70;99.90;;;;;;5092979;28;20107;-73
2022/08/16 00:51:24;;;;;;;25.80;18.85;;;21.80;99.90;;;;;;5091387;28;20043;-72
2022/08/16 00:53:52;;;;;;;30.20;18.85;;;21.80;99.90;;;;;;5092218;28;20024;-73
2022/08/16 00:56:26;;;;;;;23.90;19.38;;;21.70;99.90;;;;;;5093021;28;20016;-73
2022/08/16 00:58:52;;;;;;;23.83;17.73;;;21.70;99.90;;;;;;5093198;28;20032;-73
2022/08/16 01:01:19;;;;;;;21.38;18.25;;;21.50;99.90;;;;;;5092948;28;20020;-74
2022/08/16 01:03:49;;;;;;;26.92;19.15;;;21.50;99.90;;;;;;5092822;28;20441;-74
2022/08/16 01:06:17;;;;;;;28.25;20.20;;;21.40;99.90;;;;;;5091003;28;20430;-74
2022/08/16 01:08:46;;;;;;;27.42;19.63;;;21.50;99.90;;;;;;5092852;28;20060;-74
2022/08/16 01:11:12;;;;;;;25.20;19.55;;;21.40;99.90;;;;;;5091515;28;20083;-74
2022/08/16 01:13:39;;;;;;;23.00;20.50;;;21.40;99.90;;;;;;5091316;28;20422;-74
2022/08/16 01:16:13;;;;;;;23.30;20.85;;;21.40;99.90;;;;;;5092592;28;20023;-74
2022/08/16 01:18:53;;;;;;;27.25;20.88;;;21.30;99.90;;;;;;5092591;28;20043;-74
2022/08/16 01:21:52;;;;;;;28.70;20.60;;;21.20;99.90;;;;;;5091566;28;20388;-74
2022/08/16 01:24:18;;;;;;;28.83;20.90;;;21.20;99.90;;;;;;5071800;28;20128;-74
2022/08/16 01:26:47;;;;;;;27.38;21.23;;;21.20;99.90;;;;;;5092551;28;20475;-74
2022/08/16 01:29:32;;;;;;;26.52;22.45;;;21.30;99.90;;;;;;5090988;28;20057;-70
2022/08/16 01:31:58;;;;;;;28.45;22.30;;;21.30;99.90;;;;;;5091150;28;20036;-74
2022/08/16 01:34:24;;;;;;;32.83;21.48;;;21.20;99.90;;;;;;5091053;28;20025;-74
2022/08/16 01:36:57;;;;;;;29.25;22.60;;;21.30;99.90;;;;;;5091355;28;20023;-74
2022/08/16 01:39:23;;;;;;;36.92;23.52;;;21.30;99.90;;;;;;5091217;28;20475;-74
2022/08/16 01:41:49;;;;;;;29.40;23.80;;;21.40;99.90;;;;;;5091490;28;20020;-74
2022/08/16 01:44:15;;;;;;;29.00;22.48;;;21.30;99.90;;;;;;5090992;28;20028;-74
2022/08/16 01:46:44;;;;;;;28.45;21.77;;;21.30;99.90;;;;;;5091036;28;20034;-72
2022/08/16 01:49:27;;;;;;;30.08;22.67;;;21.20;99.90;;;;;;5091953;28;20460;-73
2022/08/16 01:51:58;;;;;;;29.30;21.25;;;21.10;99.90;;;;;;5091100;28;20101;-74
2022/08/16 01:54:33;;;;;;;25.95;20.80;;;21.00;99.90;;;;;;5090871;28;20032;-74
2022/08/16 01:57:00;;;;;;;23.38;20.88;;;20.90;99.90;;;;;;5091022;28;20118;-73
2022/08/16 01:59:27;;;;;;;33.00;22.67;;;21.00;99.90;;;;;;5091190;28;20024;-74
2022/08/16 02:01:53;;;;;;;29.08;22.83;;;20.90;99.90;;;;;;5092322;28;20028;-74
2022/08/16 02:04:22;;;;;;;27.27;22.63;;;20.80;99.90;;;;;;5092087;28;20467;-69
2022/08/16 02:06:48;;;;;;;35.67;22.42;;;20.70;99.90;;;;;;5093759;28;20392;-68
2022/08/16 02:09:21;;;;;;;28.20;21.08;;;20.60;99.90;;;;;;5094725;28;20031;-68
2022/08/16 02:11:55;;;;;;;30.10;21.77;;;20.70;99.90;;;;;;5094431;28;20123;-72
2022/08/16 02:14:23;;;;;;;25.65;21.45;;;20.70;99.90;;;;;;5094616;28;20434;-68
2022/08/16 02:16:49;;;;;;;27.58;21.17;;;20.90;99.90;;;;;;5095416;28;20031;-68
2022/08/16 02:19:17;;;;;;;23.70;20.55;;;21.00;99.90;;;;;;5092340;28;20498;-68
2022/08/16 02:21:50;;;;;;;24.80;19.90;;;20.90;99.90;;;;;;5095408;28;20236;-68
2022/08/16 02:24:17;;;;;;;27.23;20.13;;;21.10;99.90;;;;;;5094355;28;20039;-74
2022/08/16 02:26:43;;;;;;;22.42;19.98;;;21.00;99.90;;;;;;5094050;28;20016;-73
2022/08/16 02:29:09;;;;;;;26.05;20.25;;;21.00;99.90;;;;;;5095112;28;20039;-72
2022/08/16 02:31:35;;;;;;;33.08;20.95;;;20.90;99.90;;;;;;5093664;28;20028;-73
2022/08/16 02:34:02;;;;;;;27.05;20.95;;;20.90;99.90;;;;;;5095412;28;20028;-73
2022/08/16 02:36:35;;;;;;;33.25;21.48;;;21.00;99.90;;;;;;5094774;28;20051;-69
2022/08/16 02:39:03;;;;;;;28.58;21.90;;;20.90;99.90;;;;;;5095144;28;20469;-68
2022/08/16 02:41:29;;;;;;;26.70;21.38;;;20.90;99.90;;;;;;5093769;28;20461;-68
2022/08/16 02:43:55;;;;;;;27.20;19.42;;;20.70;99.90;;;;;;5094018;28;20020;-69
2022/08/16 02:46:22;;;;;;;24.85;21.17;;;20.40;99.90;;;;;;5093325;28;20028;-68
2022/08/16 02:48:49;;;;;;;21.67;19.38;;;20.10;99.90;;;;;;5082495;28;20081;-68
2022/08/16 02:51:15;;;;;;;30.75;21.13;;;20.10;99.90;;;;;;5093298;28;20032;-69
2022/08/16 02:53:44;;;;;;;26.20;19.77;;;20.30;99.90;;;;;;5094085;28;20445;-68
2022/08/16 02:56:13;;;;;;;26.40;20.60;;;20.20;99.90;;;;;;5093640;28;20447;-68
2022/08/16 02:58:40;;;;;;;23.50;19.95;;;20.30;99.90;;;;;;5093680;28;20020;-69
2022/08/16 03:01:08;;;;;;;27.55;19.88;;;20.30;99.90;;;;;;5093111;28;20034;-72
2022/08/16 03:03:35;;;;;;;31.52;20.25;;;20.30;99.90;;;;;;5093439;28;20384;-68
2022/08/16 03:06:02;;;;;;;22.05;19.77;;;20.10;99.90;;;;;;5093470;28;20039;-68
2022/08/16 03:08:28;;;;;;;23.45;19.02;;;20.20;99.90;;;;;;5094691;28;20024;-69
2022/08/16 03:10:54;;;;;;;25.50;19.02;;;20.20;99.90;;;;;;5093848;28;20036;-69
2022/08/16 03:13:20;;;;;;;21.80;19.13;;;20.10;99.90;;;;;;5094436;28;20024;-73
2022/08/16 03:15:46;;;;;;;27.30;19.65;;;20.20;99.90;;;;;;5092712;28;20476;-73
2022/08/16 03:18:12;;;;;;;20.35;18.13;;;20.20;99.90;;;;;;5093104;28;20028;-69
2022/08/16 03:20:39;;;;;;;24.95;19.17;;;20.10;99.90;;;;;;5093458;28;20024;-68
2022/08/16 03:23:07;;;;;;;19.67;17.58;;;20.10;99.90;;;;;;5093125;28;20111;-69
2022/08/16 03:25:34;;;;;;;24.63;18.33;;;20.10;99.90;;;;;;5092945;28;20031;-73
2022/08/16 03:28:01;;;;;;;22.80;19.27;;;20.10;99.90;;;;;;5092946;28;20036;-68
2022/08/16 03:30:34;;;;;;;20.52;18.02;;;20.10;99.90;;;;;;5092836;28;20116;-68
2022/08/16 03:33:04;;;;;;;23.77;18.33;;;20.10;99.90;;;;;;5093003;28;20039;-68
2022/08/16 03:35:36;;;;;;;24.85;17.50;;;20.20;99.90;;;;;;5093139;28;20533;-72
2022/08/16 03:38:22;;;;;;;25.48;18.95;;;20.00;99.90;;;;;;5092681;28;20228;-69
2022/08/16 03:40:50;;;;;;;21.75;18.50;;;20.00;99.90;;;;;;5092872;28;20024;-68
2022/08/16 03:43:18;;;;;;;25.73;18.02;;;19.80;99.90;;;;;;5092685;28;20108;-69
2022/08/16 03:45:46;;;;;;;20.10;17.52;;;19.70;99.90;;;;;;5093914;28;20028;-69
2022/08/16 03:48:12;;;;;;;24.55;18.40;;;19.80;99.90;;;;;;5092530;28;20023;-70
2022/08/16 03:50:38;;;;;;;21.58;17.30;;;19.90;99.90;;;;;;5094310;28;20036;-70
2022/08/16 03:53:05;;;;;;;25.08;18.33;;;19.70;99.90;;;;;;5092294;28;20027;-71
2022/08/16 03:55:31;;;;;;;27.10;17.95;;;19.50;99.90;;;;;;5092920;28;20020;-72
2022/08/16 03:57:57;;;;;;;20.25;18.08;;;19.40;99.90;;;;;;5092343;28;20126;-72
2022/08/16 04:00:28;;;;;;;22.27;17.05;;;19.50;99.90;;;;;;5092387;28;20012;-69
2022/08/16 04:02:57;;;;;;;28.35;18.92;;;19.40;99.90;;;;;;5092263;28;20388;-69
2022/08/16 04:05:24;;;;;;;27.02;18.65;;;19.60;99.90;;;;;;5092466;28;20358;-70
2022/08/16 04:07:50;;;;;;;26.45;18.63;;;19.60;99.90;;;;;;5092245;28;20035;-70
2022/08/16 04:10:16;;;;;;;23.33;19.17;;;19.60;99.90;;;;;;5092367;28;20084;-71
2022/08/16 04:12:44;;;;;;;22.52;18.90;;;19.60;99.90;;;;;;5092141;28;20036;-71
2022/08/16 04:15:13;;;;;;;26.17;19.65;;;19.60;99.90;;;;;;5093147;28;20142;-69
2022/08/16 04:17:45;;;;;;;22.05;18.55;;;19.70;99.90;;;;;;5076300;28;20388;-68
2022/08/16 04:20:13;;;;;;;25.80;18.85;;;19.90;99.90;;;;;;5092069;28;20020;-75
2022/08/16 04:22:42;;;;;;;25.15;18.13;;;19.80;99.90;;;;;;5092043;28;20024;-69
2022/08/16 04:25:10;;;;;;;19.95;17.83;;;19.90;99.90;;;;;;5092546;28;20020;-75
2022/08/16 04:27:37;;;;;;;22.50;20.17;;;19.90;99.90;;;;;;5092583;28;20028;-75
2022/08/16 04:30:09;;;;;;;24.60;19.83;;;20.10;99.90;;;;;;5091100;28;20028;-74
2022/08/16 04:32:39;;;;;;;22.65;18.33;;;20.10;99.90;;;;;;5091388;28;20105;-73
2022/08/16 04:35:09;;;;;;;25.80;18.58;;;20.00;99.90;;;;;;5091648;28;20051;-75
2022/08/16 04:37:35;;;;;;;30.67;20.45;;;20.00;99.90;;;;;;5092111;28;20032;-75
2022/08/16 04:40:11;;;;;;;24.75;18.50;;;20.00;99.90;;;;;;5093043;28;20024;-75
2022/08/16 04:42:39;;;;;;;31.30;20.83;;;20.20;99.90;;;;;;5091490;28;20077;-74
2022/08/16 04:45:07;;;;;;;25.83;20.08;;;20.20;99.90;;;;;;5091624;28;20078;-74
2022/08/16 04:47:34;;;;;;;26.60;20.55;;;20.30;99.90;;;;;;5091517;28;20024;-75
2022/08/16 04:50:21;;;;;;;33.38;20.58;;;20.30;99.90;;;;;;5091491;28;20450;-74
2022/08/16 04:52:58;;;;;;;26.92;20.17;;;20.30;99.90;;;;;;5092928;28;20035;-75
2022/08/16 04:55:27;;;;;;;35.72;20.67;;;20.20;99.90;;;;;;5091629;28;20032;-75
2022/08/16 04:57:54;;;;;;;23.08;19.10;;;20.30;99.90;;;;;;5091296;28;20036;-74
2022/08/16 05:00:34;;;;;;;22.95;19.13;;;20.10;99.90;;;;;;5091458;28;20028;-74
2022/08/16 05:03:09;;;;;;;26.05;19.58;;;20.00;99.90;;;;;;5091566;28;20107;-75
2022/08/16 05:05:47;;;;;;;25.77;20.20;;;20.00;99.90;;;;;;5091656;28;20035;-74
2022/08/16 05:08:17;;;;;;;31.73;21.15;;;20.20;99.90;;;;;;5091473;28;20050;-74
2022/08/16 05:10:48;;;;;;;25.52;20.50;;;20.20;99.90;;;;;;5091419;28;20028;-75
2022/08/16 05:13:16;;;;;;;27.35;21.30;;;20.20;99.90;;;;;;5091300;28;20039;-72
2022/08/16 05:15:42;;;;;;;33.80;21.58;;;20.10;99.90;;;;;;5091318;28;20521;-74
2022/08/16 05:18:08;;;;;;;34.05;21.02;;;20.20;99.90;;;;;;5091385;28;20032;-74
2022/08/16 05:20:42;;;;;;;22.88;19.23;;;20.30;99.90;;;;;;5091366;28;20093;-74
2022/08/16 05:23:09;;;;;;;28.58;20.20;;;20.30;99.90;;;;;;5091549;28;20020;-74
2022/08/16 05:25:36;;;;;;;26.95;20.92;;;20.40;99.90;;;;;;5090524;28;20039;-74
2022/08/16 05:28:02;;;;;;;27.15;20.42;;;20.40;99.90;;;;;;5091481;28;20376;-74
2022/08/16 05:30:28;;;;;;;31.45;20.90;;;20.20;99.90;;;;;;5091286;28;20024;-75
2022/08/16 05:32:54;;;;;;;27.80;20.20;;;20.20;99.90;;;;;;5091849;28;20460;-69
2022/08/16 05:35:21;;;;;;;27.95;20.33;;;20.20;99.90;;;;;;5092046;28;20027;-70
2022/08/16 05:38:15;;;;;;;23.50;19.70;;;20.00;99.90;;;;;;5065922;28;20020;-68
2022/08/16 05:40:41;;;;;;;30.48;20.50;;;20.20;99.90;;;;;;5076934;28;20035;-69
2022/08/16 05:43:08;;;;;;;26.15;20.30;;;20.20;99.90;;;;;;5095526;28;20035;-69
2022/08/16 05:45:35;;;;;;;32.97;21.55;;;20.10;99.90;;;;;;5094979;28;20119;-70
2022/08/16 05:48:03;;;;;;;37.90;22.45;;;20.00;99.90;;;;;;5095264;28;20023;-71
2022/08/16 05:50:50;;;;;;;23.02;20.52;;;20.00;99.90;;;;;;5085338;28;20057;-71
2022/08/16 05:53:16;;;;;;;24.48;21.40;;;20.00;99.90;;;;;;5094990;28;20198;-69
2022/08/16 05:55:58;;;;;;;29.70;20.77;;;20.10;99.90;;;;;;5094468;28;20085;-70
2022/08/16 05:58:24;;;;;;;34.33;22.35;;;20.10;99.90;;;;;;5094781;28;20032;-71
2022/08/16 06:00:50;;;;;;;26.90;21.50;;;20.00;99.90;;;;;;5094985;28;20116;-69
2022/08/16 06:03:17;;;;;;;28.27;21.80;;;20.20;99.90;;;;;;5094939;28;20063;-69
2022/08/16 06:05:57;;;;;;;28.85;20.67;;;20.10;99.90;;;;;;5094845;28;20055;-70
2022/08/16 06:08:24;;;;;;;32.22;22.95;;;19.80;99.90;;;;;;5095931;28;20451;-71
2022/08/16 06:10:51;;;;;;;26.80;22.50;;;19.80;99.90;;;;;;5094427;28;20036;-68
2022/08/16 06:13:17;;;;;;;29.27;21.90;;;20.00;99.90;;;;;;5095813;28;20032;-74
2022/08/16 06:15:44;;;;;;;31.98;22.15;;;20.00;99.90;;;;;;5094291;28;20107;-74
2022/08/16 06:18:10;;;;;;;24.25;20.75;;;20.00;99.90;;;;;;5094449;28;20127;-74
2022/08/16 06:20:36;;;;;;;28.27;20.85;;;19.90;99.90;;;;;;5095543;28;20028;-74
2022/08/16 06:23:16;;;;;;;27.73;20.60;;;19.80;99.90;;;;;;5094133;28;20024;-73
2022/08/16 06:25:53;;;;;;;24.08;21.50;;;19.70;99.90;;;;;;5093823;28;20020;-73
2022/08/16 06:28:21;;;;;;;34.13;24.45;;;19.70;99.90;;;;;;5094039;28;20039;-74
2022/08/16 06:30:47;;;;;;;29.98;21.30;;;19.80;99.90;;;;;;5095139;28;20472;-74
2022/08/16 06:33:16;;;;;;;32.88;23.13;;;19.70;99.90;;;;;;5094162;28;20020;-77
2022/08/16 06:35:43;;;;;;;29.83;22.00;;;19.80;99.90;;;;;;5093911;28;20032;-76
2022/08/16 06:38:09;;;;;;;28.95;22.05;;;20.00;99.90;;;;;;5085043;28;20123;-77
2022/08/16 06:40:35;;;;;;;25.90;21.50;;;20.00;99.90;;;;;;5089201;28;20078;-78
2022/08/16 06:43:01;;;;;;;29.95;21.60;;;20.20;99.90;;;;;;5085610;28;20024;-77
2022/08/16 06:45:45;;;;;;;27.08;20.35;;;20.20;99.90;;;;;;5077911;28;20534;-77
2022/08/16 06:48:16;;;;;;;;;;;20.70;99.90;;;;;;5092833;28;20475;-77
2022/08/16 06:50:42;;;;;;;31.25;20.42;;;20.80;99.90;;;;;;5087109;28;19929;-77
2022/08/16 06:53:09;;;;;;;28.30;20.98;;;20.80;99.90;;;;;;5092559;28;20023;-78
2022/08/16 06:55:46;;;;;;;27.63;20.02;;;21.00;99.90;;;;;;5092325;28;20491;-77
2022/08/16 06:58:15;;;;;;;33.40;19.15;;;21.40;99.90;;;;;;5077727;28;20032;-77
2022/08/16 07:00:41;;;;;;;23.70;17.50;;;21.30;99.90;;;;;;5070403;28;20024;-75
2022/08/16 07:03:09;;;;;;;22.98;16.27;;;21.30;99.90;;;;;;5094621;28;20028;-76
2022/08/16 07:05:36;;;;;;;24.95;17.80;;;21.30;99.90;;;;;;5090738;28;20032;-77
2022/08/16 07:08:10;;;;;;;28.35;15.70;;;21.30;99.90;;;;;;5076340;28;20353;-76
2022/08/16 07:10:38;;;;;;;22.92;15.23;;;21.60;99.90;;;;;;5083575;28;20032;-77
2022/08/16 07:13:04;;;;;;;16.55;13.40;;;22.00;99.90;;;;;;5083205;28;20468;-77
2022/08/16 07:15:30;;;;;;;27.27;14.60;;;21.70;99.90;;;;;;5095670;28;20066;-77
2022/08/16 07:17:58;;;;;;;22.80;14.10;;;21.50;99.90;;;;;;5095603;28;20433;-78
2022/08/16 07:20:26;;;;;;;32.83;13.65;;;21.90;99.90;;;;;;5076575;28;20037;-77
2022/08/16 07:22:54;;;;;;;22.08;13.95;;;22.10;99.90;;;;;;5072930;28;20029;-77
2022/08/16 07:25:26;;;;;;;;;;;22.30;99.90;;;;;;5080410;28;20060;-78
2022/08/16 07:27:52;;;;;;;21.30;13.60;;;22.00;99.90;;;;;;5087676;28;19916;-77
2022/08/16 07:30:25;;;;;;;20.50;12.48;;;22.10;99.90;;;;;;5072799;28;20043;-78
2022/08/16 07:32:51;;;;;;;18.73;12.63;;;22.30;99.90;;;;;;5067271;28;20484;-77
2022/08/16 07:35:18;;;;;;;26.70;12.73;;;22.60;99.90;;;;;;5093201;28;20012;-77
2022/08/16 07:37:43;;;;;;;17.13;12.68;;;22.90;99.90;;;;;;5088433;28;20016;-78
2022/08/16 07:40:24;;;;;;;21.55;15.13;;;22.60;99.90;;;;;;5080182;28;20063;-76
2022/08/16 07:42:51;;;;;;;19.70;12.82;;;22.60;99.90;;;;;;5095038;28;20134;-76
2022/08/16 07:45:17;;;;;;;24.95;12.60;;;22.50;99.90;;;;;;5092520;28;20395;-77
2022/08/16 07:47:48;;;;;;;24.02;12.35;;;22.70;99.90;;;;;;5087025;28;20026;-75
2022/08/16 07:50:15;;;;;;;19.98;12.95;;;22.90;99.90;;;;;;5089797;28;20024;-77
2022/08/16 07:52:43;;;;;;;19.13;12.77;;;23.10;99.90;;;;;;5078403;28;20031;-77
2022/08/16 07:55:12;;;;;;;20.58;12.02;;;23.30;99.90;;;;;;5090606;28;20066;-77
2022/08/16 07:57:42;;;;;;;27.73;12.65;;;23.30;99.90;;;;;;5092849;28;20028;-76
2022/08/16 08:00:10;;;;;;;15.20;10.50;;;23.00;99.90;;;;;;5091315;28;20015;-75
2022/08/16 08:02:40;;;;;;;21.63;11.90;;;23.50;99.90;;;;;;5091258;28;20028;-76
2022/08/16 08:05:07;;;;;;;18.35;11.18;;;23.60;99.90;;;;;;5095279;28;20380;-78
2022/08/16 08:07:35;;;;;;;19.92;11.90;;;23.70;99.90;;;;;;5092073;28;20031;-77
2022/08/16 08:10:01;;;;;;;16.48;11.10;;;24.00;99.90;;;;;;5086747;28;20028;-77
2022/08/16 08:12:27;;;;;;;16.88;10.35;;;23.80;99.90;;;;;;5092716;28;20453;-78
2022/08/16 08:14:53;;;;;;;15.93;11.90;;;23.90;99.90;;;;;;5086528;28;20115;-78
2022/08/16 08:17:19;;;;;;;16.42;9.50;;;24.10;99.90;;;;;;5096728;28;20047;-78
2022/08/16 08:19:47;;;;;;;19.73;11.50;;;24.50;99.90;;;;;;5100198;28;20024;-75
2022/08/16 08:22:13;;;;;;;17.60;11.45;;;24.50;99.90;;;;;;5085965;28;20050;-75
2022/08/16 08:24:59;;;;;;;17.38;10.13;;;24.60;99.90;;;;;;5092271;28;20032;-76
2022/08/16 08:27:26;;;;;;;15.23;9.98;;;24.30;99.90;;;;;;5101664;28;20032;-76
2022/08/16 08:29:53;;;;;;;19.73;9.57;;;24.40;99.90;;;;;;5068795;28;20376;-76
2022/08/16 08:32:21;;;;;;;11.50;8.10;;;24.60;99.90;;;;;;5078143;28;20465;-76
2022/08/16 08:34:47;;;;;;;21.52;10.27;;;24.50;99.90;;;;;;5083270;28;20017;-78
2022/08/16 08:37:13;;;;;;;15.15;10.30;;;24.50;99.90;;;;;;5092085;28;20074;-77
2022/08/16 08:39:41;;;;;;;13.15;8.43;;;24.50;99.90;;;;;;5092487;28;20050;-78
2022/08/16 08:42:07;;;;;;;15.15;9.10;;;25.00;99.90;;;;;;5090602;28;20043;-75
2022/08/16 08:44:35;;;;;;;15.25;9.10;;;25.30;99.90;;;;;;5090412;28;20030;-74
2022/08/16 08:47:07;;;;;;;25.70;10.05;;;25.40;99.90;;;;;;5087592;28;20110;-76
2022/08/16 08:49:34;;;;;;;13.73;8.48;;;25.40;99.90;;;;;;5085386;28;20043;-76
2022/08/16 08:52:03;;;;;;;18.60;9.13;;;25.40;99.90;;;;;;5084662;28;20033;-75
2022/08/16 08:54:29;;;;;;;17.80;8.63;;;25.40;99.90;;;;;;5086617;28;20387;-75
2022/08/16 08:56:56;;;;;;;12.73;8.68;;;25.20;99.90;;;;;;5070448;28;20727;-75
2022/08/16 08:59:37;;;;;;;16.63;8.68;;;24.60;99.90;;;;;;5092900;28;20039;-70
2022/08/16 09:02:07;;;;;;;20.33;8.23;;;24.60;99.90;;;;;;5095240;28;20031;-72
2022/08/16 09:04:59;;;;;;;12.88;8.93;;;25.10;99.90;;;;;;5088020;28;20033;-71
2022/08/16 09:07:25;;;;;;;11.00;7.10;;;24.80;99.90;;;;;;5089457;28;20028;-70
2022/08/16 09:09:54;;;;;;;16.17;8.13;;;25.30;99.90;;;;;;5084096;28;20020;-71
2022/08/16 09:12:21;;;;;;;16.15;7.30;;;25.70;99.90;;;;;;5075370;28;20036;-71
2022/08/16 09:14:53;;;;;;;13.27;7.85;;;25.90;99.90;;;;;;5087678;28;20024;-69
2022/08/16 09:17:23;;;;;;;17.33;8.40;;;26.00;99.90;;;;;;5099461;28;20165;-71
2022/08/16 09:19:50;;;;;;;13.98;7.00;;;26.10;99.90;;;;;;5102554;28;20475;-72
2022/08/16 09:22:17;;;;;;;17.27;7.35;;;25.60;99.90;;;;;;5090324;28;20472;-72
2022/08/16 09:24:44;;;;;;;27.73;7.43;;;25.60;99.90;;;;;;5089972;28;20028;-72
2022/08/16 09:27:10;;;;;;;10.68;7.00;;;26.10;99.90;;;;;;5103919;28;20110;-72
2022/08/16 09:29:36;;;;;;;11.93;6.40;;;26.40;99.90;;;;;;5083901;28;20063;-74
2022/08/16 09:32:02;;;;;;;12.75;6.85;;;26.80;99.90;;;;;;5086893;28;20471;-73
2022/08/16 09:34:28;;;;;;;17.60;6.72;;;27.20;99.70;;;;;;5082134;28;20046;-72
2022/08/16 09:36:56;;;;;;;12.07;6.30;;;27.00;99.20;;;;;;5085039;28;20016;-72
2022/08/16 09:39:26;;;;;;;9.18;5.38;;;26.90;99.20;;;;;;5102412;28;20108;-72
2022/08/16 09:41:55;;;;;;;9.27;5.45;;;26.70;99.50;;;;;;5101332;28;20076;-70
2022/08/16 09:44:25;;;;;;;9.18;5.68;;;26.40;99.30;;;;;;5090780;28;20012;-71
2022/08/16 09:46:53;;;;;;;11.93;5.25;;;26.60;99.90;;;;;;5078813;28;20086;-70
2022/08/16 09:49:19;;;;;;;9.25;4.85;;;26.70;98.70;;;;;;5085707;28;20024;-70
2022/08/16 09:51:46;;;;;;;14.32;4.18;;;26.90;98.00;;;;;;5094909;28;20036;-70
2022/08/16 09:54:13;;;;;;;13.60;5.10;;;27.10;96.60;;;;;;5095157;28;20483;-71
2022/08/16 09:56:40;;;;;;;11.00;4.47;;;27.50;96.40;;;;;;5091425;28;20020;-72
2022/08/16 09:59:08;;;;;;;9.20;4.53;;;27.40;96.30;;;;;;5089366;28;20032;-73
2022/08/16 10:01:35;;;;;;;14.80;4.57;;;27.40;96.80;;;;;;5086171;28;20051;-70
2022/08/16 10:04:02;;;;;;;14.13;4.35;;;27.30;97.00;;;;;;5096288;28;20103;-72
2022/08/16 10:06:28;;;;;;;15.95;4.40;;;27.70;96.60;;;;;;5097037;28;20551;-73
2022/08/16 10:08:54;;;;;;;10.90;4.13;;;27.60;96.00;;;;;;5082235;28;20047;-72
2022/08/16 10:14:04;;;;;;;7.68;3.55;;;27.30;95.70;;;;;;5089687;28;20020;-70
2022/08/16 10:16:30;;;;;;;10.40;3.60;;;27.00;94.90;;;;;;5089162;28;20050;-70
2022/08/16 10:18:56;;;;;;;9.20;3.80;;;27.10;94.60;;;;;;5092432;28;20029;-73
2022/08/16 10:21:22;;;;;;;12.05;3.88;;;26.90;95.50;;;;;;5093269;28;20115;-73
2022/08/16 10:23:50;;;;;;;10.93;4.50;;;27.40;94.90;;;;;;5090423;28;20502;-71
2022/08/16 10:26:16;;;;;;;9.18;4.03;;;27.20;94.40;;;;;;5096027;28;20043;-73
2022/08/16 10:28:42;;;;;;;9.57;3.50;;;28.00;93.80;;;;;;5111704;28;20039;-72
2022/08/16 10:31:10;;;;;;;5.00;3.15;;;28.40;92.80;;;;;;5103131;28;20040;-73
2022/08/16 10:33:36;;;;;;;9.20;3.65;;;29.20;91.80;;;;;;5101804;28;20016;-73
2022/08/16 10:36:05;;;;;;;11.27;3.72;;;29.30;91.20;;;;;;5097406;28;20055;-71
2022/08/16 10:38:33;;;;;;;7.47;3.72;;;28.90;91.50;;;;;;5101684;28;20395;-73
2022/08/16 10:40:59;;;;;;;5.03;2.83;;;28.50;91.60;;;;;;5108033;28;20035;-72
2022/08/16 10:43:26;;;;;;;12.88;3.53;;;28.40;91.70;;;;;;5102353;28;20051;-71
2022/08/16 10:45:52;;;;;;;13.15;3.90;;;28.20;92.80;;;;;;5101888;28;20012;-72
2022/08/16 10:48:17;;;;;;;6.18;3.22;;;28.70;92.60;;;;;;5094496;28;20043;-72
2022/08/16 10:50:44;;;;;;;5.68;4.00;;;28.30;92.40;;;;;;5104832;28;20140;-73
2022/08/16 10:53:10;;;;;;;10.90;3.22;;;27.60;92.40;;;;;;5089636;28;20020;-72
2022/08/16 10:55:40;;;;;;;8.00;3.63;;;27.70;93.30;;;;;;5090548;28;20024;-72
2022/08/16 10:58:09;;;;;;;11.93;4.60;;;28.30;92.70;;;;;;5094530;28;20372;-70
2022/08/16 11:00:39;;;;;;;8.82;3.33;;;27.90;92.40;;;;;;5103059;28;20383;-70
2022/08/16 11:03:06;;;;;;;10.07;3.25;;;27.60;92.80;;;;;;5082742;28;20028;-69
2022/08/16 11:05:35;;;;;;;12.65;3.15;;;27.60;92.40;;;;;;5079956;28;20028;-70
2022/08/16 11:08:01;;;;;;;7.63;2.80;;;27.70;92.40;;;;;;5081560;28;20044;-72
2022/08/16 11:10:31;;;;;;;6.63;3.28;;;27.60;91.40;;;;;;5084232;28;20019;-69
2022/08/16 11:12:57;;;;;;;3.85;2.65;;;27.70;91.20;;;;;;5101147;28;20118;-71
2022/08/16 11:15:24;;;;;;;10.32;3.10;;;27.20;91.20;;;;;;5090635;28;20350;-74
2022/08/16 11:17:51;;;;;;;9.07;3.38;;;27.30;91.60;;;;;;5089826;28;20019;-73
2022/08/16 11:20:18;;;;;;;7.07;2.75;;;27.30;90.60;;;;;;5081885;28;20112;-74
2022/08/16 11:22:46;;;;;;;6.07;3.08;;;27.30;90.80;;;;;;5077411;28;20485;-73
2022/08/16 11:25:14;;;;;;;9.95;3.15;;;27.40;90.90;;;;;;5097370;28;20468;-72
2022/08/16 11:27:40;;;;;;;5.07;2.60;;;26.90;91.00;;;;;;5107634;28;20027;-74
2022/08/16 11:30:09;;;;;;;5.47;2.70;;;27.00;90.70;;;;;;5107660;28;20993;-73
2022/08/16 11:32:36;;;;;;;8.60;2.88;;;27.10;91.60;;;;;;5102000;28;20476;-74
2022/08/16 11:35:08;;;;;;;5.22;2.53;;;27.30;90.40;;;;;;5096627;28;20013;-71
2022/08/16 11:37:34;;;;;;;10.43;3.00;;;27.20;90.80;;;;;;5093391;28;20488;-69
2022/08/16 11:40:03;;;;;;;6.63;3.05;;;27.50;90.70;;;;;;5109927;28;20016;-70
2022/08/16 11:42:29;;;;;;;8.20;2.90;;;27.90;90.80;;;;;;5105985;28;20028;-72
2022/08/16 11:44:54;;;;;;;10.48;2.97;;;28.40;90.50;;;;;;5098734;28;20028;-72
2022/08/16 11:47:20;;;;;;;7.38;3.17;;;28.10;90.30;;;;;;5096210;28;20504;-71
2022/08/16 11:49:46;;;;;;;9.35;3.08;;;28.40;90.30;;;;;;5096077;28;20022;-71
2022/08/16 11:52:12;;;;;;;6.60;3.40;;;29.00;90.10;;;;;;5107368;28;20542;-71
2022/08/16 11:54:39;;;;;;;9.68;2.72;;;29.50;89.80;;;;;;5096381;28;20032;-72
2022/08/16 11:57:05;;;;;;;6.50;2.95;;;29.90;88.90;;;;;;5097382;28;20023;-72
2022/08/16 11:59:32;;;;;;;10.00;3.40;;;29.80;88.70;;;;;;5095012;28;20040;-75
2022/08/16 12:01:58;;;;;;;6.18;3.60;;;29.70;89.50;;;;;;5110299;28;20023;-76
2022/08/16 12:04:24;;;;;;;7.95;3.10;;;30.40;87.40;;;;;;5107478;28;20027;-76
2022/08/16 12:06:50;;;;;;;3.75;2.65;;;31.10;87.20;;;;;;5099720;28;20065;-76
2022/08/16 12:09:17;;;;;;;14.15;3.38;;;31.20;86.40;;;;;;5089874;28;20035;-77
2022/08/16 12:11:43;;;;;;;7.75;2.78;;;30.50;87.00;;;;;;5093767;28;20084;-77
2022/08/16 12:14:09;;;;;;;6.90;2.95;;;30.70;86.70;;;;;;5090009;28;20027;-76
2022/08/16 12:16:35;;;;;;;6.40;3.22;;;30.50;87.30;;;;;;5095327;28;20027;-76
2022/08/16 12:19:06;;;;;;;4.05;2.85;;;30.60;85.90;;;;;;5088204;28;20035;-76
2022/08/16 12:21:33;;;;;;;12.55;2.90;;;29.40;87.10;;;;;;5098231;28;20531;-76
2022/08/16 12:23:58;;;;;;;8.35;3.15;;;29.50;87.50;;;;;;5081324;28;20027;-76
2022/08/16 12:26:25;;;;;;;11.00;3.30;;;30.00;87.50;;;;;;5082850;28;20024;-76
2022/08/16 12:28:52;;;;;;;4.55;2.85;;;29.80;86.50;;;;;;5086866;28;20111;-75
2022/08/16 12:31:19;;;;;;;7.75;3.38;;;30.30;86.90;;;;;;5079846;28;20042;-77
2022/08/16 12:33:45;;;;;;;6.53;2.70;;;29.90;86.10;;;;;;5097662;28;20471;-76
2022/08/16 12:36:12;;;;;;;5.63;2.90;;;29.90;86.40;;;;;;5088160;28;20031;-76
2022/08/16 12:38:39;;;;;;;9.30;3.20;;;29.30;86.80;;;;;;5089642;28;20115;-75
2022/08/16 12:41:05;;;;;;;10.48;3.00;;;29.40;88.20;;;;;;5092400;28;20071;-75
2022/08/16 12:43:31;;;;;;;3.78;3.00;;;30.10;88.10;;;;;;5080566;28;20453;-77